sensor_id;sensor_type;location;lat;lon;timestamp;pressure;altitude;pressure_sealevel;temperature;humidity
74615;BME280;63121;51.458;-0.110;2023-04-24T00:02:01;100408.75;;;11.23;73.63
74615;BME280;63121;51.458;-0.110;2023-04-24T00:04:26;100406.66;;;11.42;72.82
74615;BME280;63121;51.458;-0.110;2023-04-24T00:06:52;100404.59;;;12.01;71.15
74615;BME280;63121;51.458;-0.110;2023-04-24T00:09:22;100417.16;;;11.76;72.32
74615;BME280;63121;51.458;-0.110;2023-04-24T00:11:47;100410.44;;;11.69;71.56
74615;BME280;63121;51.458;-0.110;2023-04-24T00:14:13;100419.00;;;11.71;70.97
74615;BME280;63121;51.458;-0.110;2023-04-24T00:16:38;100419.66;;;11.38;72.32
74615;BME280;63121;51.458;-0.110;2023-04-24T00:19:03;100430.97;;;11.31;72.21
74615;BME280;63121;51.458;-0.110;2023-04-24T00:21:31;100426.94;;;11.16;72.85
74615;BME280;63121;51.458;-0.110;2023-04-24T00:23:58;100434.06;;;11.50;72.04
74615;BME280;63121;51.458;-0.110;2023-04-24T00:26:23;100437.75;;;11.38;71.91
74615;BME280;63121;51.458;-0.110;2023-04-24T00:28:48;100439.25;;;11.49;71.83
74615;BME280;63121;51.458;-0.110;2023-04-24T00:31:14;100440.88;;;11.54;71.65
74615;BME280;63121;51.458;-0.110;2023-04-24T00:33:39;100442.81;;;11.88;70.61
74615;BME280;63121;51.458;-0.110;2023-04-24T00:36:05;100444.97;;;11.66;71.57
74615;BME280;63121;51.458;-0.110;2023-04-24T00:38:31;100446.03;;;11.56;72.04
74615;BME280;63121;51.458;-0.110;2023-04-24T00:40:56;100451.81;;;11.67;71.10
74615;BME280;63121;51.458;-0.110;2023-04-24T00:43:22;100452.94;;;11.55;71.20
74615;BME280;63121;51.458;-0.110;2023-04-24T00:45:47;100458.25;;;11.48;72.33
74615;BME280;63121;51.458;-0.110;2023-04-24T00:48:13;100458.38;;;11.40;72.81
74615;BME280;63121;51.458;-0.110;2023-04-24T00:50:38;100452.81;;;11.62;70.90
74615;BME280;63121;51.458;-0.110;2023-04-24T00:53:04;100464.75;;;11.21;71.60
74615;BME280;63121;51.458;-0.110;2023-04-24T00:55:30;100456.41;;;11.53;71.74
74615;BME280;63121;51.458;-0.110;2023-04-24T00:57:56;100466.25;;;11.79;70.72
74615;BME280;63121;51.458;-0.110;2023-04-24T01:00:22;100460.66;;;12.00;70.01
74615;BME280;63121;51.458;-0.110;2023-04-24T01:02:48;100466.28;;;11.77;70.57
74615;BME280;63121;51.458;-0.110;2023-04-24T01:05:15;100470.28;;;11.95;70.35
74615;BME280;63121;51.458;-0.110;2023-04-24T01:07:40;100462.63;;;11.89;70.24
74615;BME280;63121;51.458;-0.110;2023-04-24T01:10:09;100463.53;;;11.85;69.94
74615;BME280;63121;51.458;-0.110;2023-04-24T01:12:35;100467.38;;;12.09;70.19
74615;BME280;63121;51.458;-0.110;2023-04-24T01:15:00;100462.53;;;12.33;69.41
74615;BME280;63121;51.458;-0.110;2023-04-24T01:17:26;100465.56;;;12.14;69.35
74615;BME280;63121;51.458;-0.110;2023-04-24T01:19:51;100477.44;;;12.23;69.11
74615;BME280;63121;51.458;-0.110;2023-04-24T01:22:18;100483.75;;;12.10;69.81
74615;BME280;63121;51.458;-0.110;2023-04-24T01:24:46;100486.22;;;11.71;70.40
74615;BME280;63121;51.458;-0.110;2023-04-24T01:27:12;100483.75;;;12.10;69.88
74615;BME280;63121;51.458;-0.110;2023-04-24T01:29:37;100482.81;;;11.69;70.80
74615;BME280;63121;51.458;-0.110;2023-04-24T01:32:03;100474.72;;;11.86;70.74
74615;BME280;63121;51.458;-0.110;2023-04-24T01:34:30;100479.19;;;11.79;71.40
74615;BME280;63121;51.458;-0.110;2023-04-24T01:36:55;100477.34;;;11.39;70.93
74615;BME280;63121;51.458;-0.110;2023-04-24T01:39:22;100471.03;;;11.55;70.51
74615;BME280;63121;51.458;-0.110;2023-04-24T01:41:51;100471.28;;;11.40;71.32
74615;BME280;63121;51.458;-0.110;2023-04-24T01:44:18;100469.69;;;11.79;69.88
74615;BME280;63121;51.458;-0.110;2023-04-24T01:46:43;100469.22;;;11.59;71.02
74615;BME280;63121;51.458;-0.110;2023-04-24T01:49:09;100474.16;;;11.70;70.38
74615;BME280;63121;51.458;-0.110;2023-04-24T01:51:35;100477.13;;;11.51;70.55
74615;BME280;63121;51.458;-0.110;2023-04-24T01:54:00;100479.34;;;11.70;70.59
74615;BME280;63121;51.458;-0.110;2023-04-24T01:56:31;100479.47;;;11.64;70.03
74615;BME280;63121;51.458;-0.110;2023-04-24T01:58:58;100480.44;;;11.59;70.15
74615;BME280;63121;51.458;-0.110;2023-04-24T02:01:24;100494.19;;;11.60;70.57
74615;BME280;63121;51.458;-0.110;2023-04-24T02:03:50;100485.66;;;11.55;71.24
74615;BME280;63121;51.458;-0.110;2023-04-24T02:06:16;100494.75;;;11.29;71.99
74615;BME280;63121;51.458;-0.110;2023-04-24T02:08:41;100497.84;;;11.48;71.13
74615;BME280;63121;51.458;-0.110;2023-04-24T02:11:08;100499.16;;;11.71;70.61
74615;BME280;63121;51.458;-0.110;2023-04-24T02:13:34;100495.53;;;11.81;70.24
74615;BME280;63121;51.458;-0.110;2023-04-24T02:15:59;100502.50;;;11.76;70.05
74615;BME280;63121;51.458;-0.110;2023-04-24T02:18:25;100500.91;;;11.70;70.34
74615;BME280;63121;51.458;-0.110;2023-04-24T02:20:50;100496.25;;;11.89;68.92
74615;BME280;63121;51.458;-0.110;2023-04-24T02:23:16;100503.97;;;11.91;69.60
74615;BME280;63121;51.458;-0.110;2023-04-24T02:25:41;100506.72;;;11.80;69.98
74615;BME280;63121;51.458;-0.110;2023-04-24T02:28:06;100499.16;;;11.71;69.82
74615;BME280;63121;51.458;-0.110;2023-04-24T02:30:32;100500.13;;;11.65;69.50
74615;BME280;63121;51.458;-0.110;2023-04-24T02:32:57;100507.09;;;11.62;70.38
74615;BME280;63121;51.458;-0.110;2023-04-24T02:35:22;100508.50;;;11.30;71.18
74615;BME280;63121;51.458;-0.110;2023-04-24T02:37:48;100515.56;;;11.22;71.89
74615;BME280;63121;51.458;-0.110;2023-04-24T02:40:13;100523.16;;;11.31;71.51
74615;BME280;63121;51.458;-0.110;2023-04-24T02:42:38;100532.78;;;11.21;71.78
74615;BME280;63121;51.458;-0.110;2023-04-24T02:45:04;100525.94;;;11.20;71.53
74615;BME280;63121;51.458;-0.110;2023-04-24T02:47:30;100535.06;;;11.38;71.07
74615;BME280;63121;51.458;-0.110;2023-04-24T02:49:55;100530.03;;;10.77;73.12
74615;BME280;63121;51.458;-0.110;2023-04-24T02:52:21;100533.31;;;11.40;71.55
74615;BME280;63121;51.458;-0.110;2023-04-24T02:54:46;100535.44;;;11.16;71.75
74615;BME280;63121;51.458;-0.110;2023-04-24T02:57:11;100542.09;;;11.30;71.88
74615;BME280;63121;51.458;-0.110;2023-04-24T02:59:37;100539.97;;;11.02;72.75
74615;BME280;63121;51.458;-0.110;2023-04-24T03:02:02;100545.97;;;11.04;71.97
74615;BME280;63121;51.458;-0.110;2023-04-24T03:04:27;100548.88;;;10.83;72.75
74615;BME280;63121;51.458;-0.110;2023-04-24T03:06:52;100549.06;;;10.72;72.93
74615;BME280;63121;51.458;-0.110;2023-04-24T03:09:20;100549.78;;;10.82;72.50
74615;BME280;63121;51.458;-0.110;2023-04-24T03:11:45;100553.88;;;10.95;71.94
74615;BME280;63121;51.458;-0.110;2023-04-24T03:14:10;100564.50;;;11.29;71.10
74615;BME280;63121;51.458;-0.110;2023-04-24T03:16:36;100558.94;;;11.03;72.14
74615;BME280;63121;51.458;-0.110;2023-04-24T03:19:02;100565.06;;;10.94;71.93
74615;BME280;63121;51.458;-0.110;2023-04-24T03:21:27;100567.91;;;10.77;72.91
74615;BME280;63121;51.458;-0.110;2023-04-24T03:23:53;100559.88;;;10.97;71.88
74615;BME280;63121;51.458;-0.110;2023-04-24T03:26:18;100570.97;;;11.02;71.53
74615;BME280;63121;51.458;-0.110;2023-04-24T03:28:43;100572.34;;;10.67;72.69
74615;BME280;63121;51.458;-0.110;2023-04-24T03:31:08;100576.34;;;10.88;72.54
74615;BME280;63121;51.458;-0.110;2023-04-24T03:33:34;100571.69;;;11.12;71.76
74615;BME280;63121;51.458;-0.110;2023-04-24T03:36:00;100572.63;;;11.06;70.99
74615;BME280;63121;51.458;-0.110;2023-04-24T03:38:25;100579.38;;;10.56;72.41
74615;BME280;63121;51.458;-0.110;2023-04-24T03:40:51;100573.19;;;11.27;70.77
74615;BME280;63121;51.458;-0.110;2023-04-24T03:43:16;100580.94;;;11.25;70.84
74615;BME280;63121;51.458;-0.110;2023-04-24T03:45:42;100589.63;;;11.21;70.85
74615;BME280;63121;51.458;-0.110;2023-04-24T03:48:07;100584.53;;;11.18;70.76
74615;BME280;63121;51.458;-0.110;2023-04-24T03:50:32;100593.09;;;10.58;72.48
74615;BME280;63121;51.458;-0.110;2023-04-24T03:52:58;100595.88;;;11.08;70.99
74615;BME280;63121;51.458;-0.110;2023-04-24T03:55:23;100596.56;;;10.57;72.19
74615;BME280;63121;51.458;-0.110;2023-04-24T03:57:48;100610.25;;;10.62;72.39
74615;BME280;63121;51.458;-0.110;2023-04-24T04:00:14;100604.88;;;10.81;71.75
74615;BME280;63121;51.458;-0.110;2023-04-24T04:02:40;100606.38;;;10.95;71.96
74615;BME280;63121;51.458;-0.110;2023-04-24T04:05:05;100611.75;;;10.82;72.13
74615;BME280;63121;51.458;-0.110;2023-04-24T04:07:31;100617.44;;;11.05;71.10
74615;BME280;63121;51.458;-0.110;2023-04-24T04:09:56;100616.47;;;11.12;71.72
74615;BME280;63121;51.458;-0.110;2023-04-24T04:12:21;100626.41;;;10.80;73.71
74615;BME280;63121;51.458;-0.110;2023-04-24T04:14:47;100621.19;;;10.84;76.74
74615;BME280;63121;51.458;-0.110;2023-04-24T04:17:12;100624.53;;;10.91;76.53
74615;BME280;63121;51.458;-0.110;2023-04-24T04:19:38;100628.78;;;10.95;75.70
74615;BME280;63121;51.458;-0.110;2023-04-24T04:22:03;100628.94;;;11.42;74.25
74615;BME280;63121;51.458;-0.110;2023-04-24T04:24:28;100636.03;;;11.29;74.85
74615;BME280;63121;51.458;-0.110;2023-04-24T04:26:54;100638.97;;;11.04;74.46
74615;BME280;63121;51.458;-0.110;2023-04-24T04:29:22;100638.63;;;11.27;74.52
74615;BME280;63121;51.458;-0.110;2023-04-24T04:31:47;100640.03;;;11.48;73.50
74615;BME280;63121;51.458;-0.110;2023-04-24T04:34:13;100649.69;;;11.37;73.44
74615;BME280;63121;51.458;-0.110;2023-04-24T04:36:39;100645.53;;;11.81;72.82
74615;BME280;63121;51.458;-0.110;2023-04-24T04:39:06;100660.97;;;11.30;73.37
74615;BME280;63121;51.458;-0.110;2023-04-24T04:41:31;100663.19;;;11.56;73.46
74615;BME280;63121;51.458;-0.110;2023-04-24T04:43:57;100669.63;;;11.29;73.29
74615;BME280;63121;51.458;-0.110;2023-04-24T04:46:23;100672.63;;;10.98;74.09
74615;BME280;63121;51.458;-0.110;2023-04-24T04:48:51;100670.59;;;11.20;73.59
74615;BME280;63121;51.458;-0.110;2023-04-24T04:51:16;100679.81;;;10.76;74.49
74615;BME280;63121;51.458;-0.110;2023-04-24T04:53:41;100675.25;;;10.95;73.93
74615;BME280;63121;51.458;-0.110;2023-04-24T04:56:07;100679.03;;;11.31;72.59
74615;BME280;63121;51.458;-0.110;2023-04-24T04:58:33;100677.53;;;11.18;73.15
74615;BME280;63121;51.458;-0.110;2023-04-24T05:00:58;100690.69;;;10.99;73.49
74615;BME280;63121;51.458;-0.110;2023-04-24T05:03:24;100693.41;;;10.90;73.89
74615;BME280;63121;51.458;-0.110;2023-04-24T05:05:49;100687.19;;;11.04;73.61
74615;BME280;63121;51.458;-0.110;2023-04-24T05:08:15;100697.13;;;10.68;74.43
74615;BME280;63121;51.458;-0.110;2023-04-24T05:10:40;100696.75;;;10.98;73.76
74615;BME280;63121;51.458;-0.110;2023-04-24T05:13:06;100714.28;;;10.73;74.22
74615;BME280;63121;51.458;-0.110;2023-04-24T05:15:31;100705.97;;;11.16;73.06
74615;BME280;63121;51.458;-0.110;2023-04-24T05:17:56;100712.97;;;11.08;73.21
74615;BME280;63121;51.458;-0.110;2023-04-24T05:20:22;100711.34;;;11.03;73.17
74615;BME280;63121;51.458;-0.110;2023-04-24T05:22:47;100708.63;;;11.12;72.53
74615;BME280;63121;51.458;-0.110;2023-04-24T05:25:13;100710.28;;;11.17;72.46
74615;BME280;63121;51.458;-0.110;2023-04-24T05:27:38;100715.53;;;11.08;73.11
74615;BME280;63121;51.458;-0.110;2023-04-24T05:30:04;100722.44;;;11.09;72.49
74615;BME280;63121;51.458;-0.110;2023-04-24T05:32:30;100722.06;;;11.34;72.31
74615;BME280;63121;51.458;-0.110;2023-04-24T05:34:55;100723.97;;;11.24;71.95
74615;BME280;63121;51.458;-0.110;2023-04-24T05:37:20;100728.28;;;11.22;72.40
74615;BME280;63121;51.458;-0.110;2023-04-24T05:39:46;100725.94;;;11.02;72.85
74615;BME280;63121;51.458;-0.110;2023-04-24T05:42:11;100718.63;;;11.35;72.53
74615;BME280;63121;51.458;-0.110;2023-04-24T05:44:36;100725.47;;;11.41;71.42
74615;BME280;63121;51.458;-0.110;2023-04-24T05:47:02;100730.06;;;11.18;71.51
74615;BME280;63121;51.458;-0.110;2023-04-24T05:49:27;100732.09;;;11.57;70.49
74615;BME280;63121;51.458;-0.110;2023-04-24T05:51:53;100736.97;;;11.16;71.40
74615;BME280;63121;51.458;-0.110;2023-04-24T05:54:18;100732.50;;;11.28;71.36
74615;BME280;63121;51.458;-0.110;2023-04-24T05:56:44;100746.28;;;11.28;70.50
74615;BME280;63121;51.458;-0.110;2023-04-24T05:59:09;100740.41;;;11.76;69.97
74615;BME280;63121;51.458;-0.110;2023-04-24T06:01:34;100739.81;;;11.60;69.22
74615;BME280;63121;51.458;-0.110;2023-04-24T06:04:02;100746.72;;;11.59;69.30
74615;BME280;63121;51.458;-0.110;2023-04-24T06:06:27;100748.41;;;10.97;69.32
74615;BME280;63121;51.458;-0.110;2023-04-24T06:08:54;100754.50;;;10.90;69.83
74615;BME280;63121;51.458;-0.110;2023-04-24T06:11:19;100748.69;;;10.74;68.98
74615;BME280;63121;51.458;-0.110;2023-04-24T06:13:44;100748.34;;;11.02;68.60
74615;BME280;63121;51.458;-0.110;2023-04-24T06:16:10;100758.44;;;11.22;68.10
74615;BME280;63121;51.458;-0.110;2023-04-24T06:18:36;100744.97;;;11.62;66.95
74615;BME280;63121;51.458;-0.110;2023-04-24T06:21:01;100754.41;;;11.63;65.96
74615;BME280;63121;51.458;-0.110;2023-04-24T06:23:27;100750.59;;;11.90;66.71
74615;BME280;63121;51.458;-0.110;2023-04-24T06:25:52;100766.00;;;11.96;65.27
74615;BME280;63121;51.458;-0.110;2023-04-24T06:28:17;100766.97;;;11.87;65.63
74615;BME280;63121;51.458;-0.110;2023-04-24T06:30:43;100772.50;;;11.64;65.10
74615;BME280;63121;51.458;-0.110;2023-04-24T06:33:09;100770.94;;;11.52;64.97
74615;BME280;63121;51.458;-0.110;2023-04-24T06:35:34;100775.75;;;11.78;64.44
74615;BME280;63121;51.458;-0.110;2023-04-24T06:38:01;100780.56;;;11.41;64.69
74615;BME280;63121;51.458;-0.110;2023-04-24T06:40:27;100782.78;;;11.69;63.34
74615;BME280;63121;51.458;-0.110;2023-04-24T06:42:52;100782.81;;;11.66;63.00
74615;BME280;63121;51.458;-0.110;2023-04-24T06:45:18;100783.63;;;11.68;61.81
74615;BME280;63121;51.458;-0.110;2023-04-24T06:47:43;100783.47;;;11.80;61.49
74615;BME280;63121;51.458;-0.110;2023-04-24T06:50:09;100780.78;;;11.89;60.03
74615;BME280;63121;51.458;-0.110;2023-04-24T06:52:35;100777.13;;;12.01;59.90
74615;BME280;63121;51.458;-0.110;2023-04-24T06:55:02;100775.44;;;11.98;60.21
74615;BME280;63121;51.458;-0.110;2023-04-24T06:57:27;100774.06;;;12.29;60.48
74615;BME280;63121;51.458;-0.110;2023-04-24T06:59:53;100769.66;;;12.35;59.42
74615;BME280;63121;51.458;-0.110;2023-04-24T07:02:18;100769.13;;;12.65;57.94
74615;BME280;63121;51.458;-0.110;2023-04-24T07:04:43;100772.09;;;11.93;60.56
74615;BME280;63121;51.458;-0.110;2023-04-24T07:07:09;100782.00;;;12.19;60.21
74615;BME280;63121;51.458;-0.110;2023-04-24T07:09:38;100775.63;;;12.40;58.44
74615;BME280;63121;51.458;-0.110;2023-04-24T07:12:06;100777.91;;;12.56;57.89
74615;BME280;63121;51.458;-0.110;2023-04-24T07:14:32;100781.81;;;12.78;59.15
74615;BME280;63121;51.458;-0.110;2023-04-24T07:16:57;100784.22;;;12.41;58.20
74615;BME280;63121;51.458;-0.110;2023-04-24T07:19:23;100789.16;;;13.00;57.04
74615;BME280;63121;51.458;-0.110;2023-04-24T07:21:48;100785.31;;;13.19;55.84
74615;BME280;63121;51.458;-0.110;2023-04-24T07:24:14;100781.81;;;12.78;56.90
74615;BME280;63121;51.458;-0.110;2023-04-24T07:26:39;100784.69;;;12.15;57.48
74615;BME280;63121;51.458;-0.110;2023-04-24T07:29:05;100784.50;;;12.74;55.91
74615;BME280;63121;51.458;-0.110;2023-04-24T07:31:31;100778.31;;;13.23;57.14
74615;BME280;63121;51.458;-0.110;2023-04-24T07:33:56;100774.94;;;13.19;58.34
74615;BME280;63121;51.458;-0.110;2023-04-24T07:36:23;100779.41;;;13.55;55.63
74615;BME280;63121;51.458;-0.110;2023-04-24T07:38:49;100787.16;;;13.14;54.24
74615;BME280;63121;51.458;-0.110;2023-04-24T07:41:15;100778.06;;;13.37;54.38
74615;BME280;63121;51.458;-0.110;2023-04-24T07:43:41;100782.44;;;13.35;53.36
74615;BME280;63121;51.458;-0.110;2023-04-24T07:46:07;100789.97;;;13.04;55.17
74615;BME280;63121;51.458;-0.110;2023-04-24T07:48:33;100787.63;;;12.91;53.55
74615;BME280;63121;51.458;-0.110;2023-04-24T07:50:58;100790.31;;;12.87;54.87
74615;BME280;63121;51.458;-0.110;2023-04-24T07:53:24;100794.72;;;13.23;55.35
74615;BME280;63121;51.458;-0.110;2023-04-24T07:55:49;100794.56;;;12.89;54.45
74615;BME280;63121;51.458;-0.110;2023-04-24T07:58:15;100799.47;;;12.56;55.81
74615;BME280;63121;51.458;-0.110;2023-04-24T08:00:40;100797.38;;;13.22;54.97
74615;BME280;63121;51.458;-0.110;2023-04-24T08:03:05;100805.00;;;13.30;54.75
74615;BME280;63121;51.458;-0.110;2023-04-24T08:05:31;100796.84;;;13.05;53.59
74615;BME280;63121;51.458;-0.110;2023-04-24T08:07:56;100805.19;;;13.61;52.57
74615;BME280;63121;51.458;-0.110;2023-04-24T08:10:22;100809.69;;;13.53;53.70
74615;BME280;63121;51.458;-0.110;2023-04-24T08:12:48;100810.53;;;14.28;51.46
74615;BME280;63121;51.458;-0.110;2023-04-24T08:15:13;100810.25;;;13.67;51.92
74615;BME280;63121;51.458;-0.110;2023-04-24T08:17:38;100809.72;;;13.51;52.20
74615;BME280;63121;51.458;-0.110;2023-04-24T08:20:04;100820.03;;;13.11;51.35
74615;BME280;63121;51.458;-0.110;2023-04-24T08:22:30;100816.88;;;13.80;52.56
74615;BME280;63121;51.458;-0.110;2023-04-24T08:24:56;100800.97;;;13.57;50.71
74615;BME280;63121;51.458;-0.110;2023-04-24T08:27:25;100816.75;;;13.46;51.81
74615;BME280;63121;51.458;-0.110;2023-04-24T08:29:53;100816.53;;;13.96;50.79
74615;BME280;63121;51.458;-0.110;2023-04-24T08:32:19;100814.97;;;13.50;51.33
74615;BME280;63121;51.458;-0.110;2023-04-24T08:34:44;100815.88;;;14.58;48.87
74615;BME280;63121;51.458;-0.110;2023-04-24T08:37:10;100818.09;;;14.37;48.36
74615;BME280;63121;51.458;-0.110;2023-04-24T08:39:36;100820.59;;;14.06;49.36
74615;BME280;63121;51.458;-0.110;2023-04-24T08:42:02;100821.34;;;14.46;49.79
74615;BME280;63121;51.458;-0.110;2023-04-24T08:44:32;100834.47;;;14.05;50.12
74615;BME280;63121;51.458;-0.110;2023-04-24T08:46:57;100819.66;;;14.44;49.81
74615;BME280;63121;51.458;-0.110;2023-04-24T08:49:24;100826.78;;;15.03;47.62
74615;BME280;63121;51.458;-0.110;2023-04-24T08:51:52;100824.19;;;14.36;48.21
74615;BME280;63121;51.458;-0.110;2023-04-24T08:54:18;100828.03;;;14.57;50.19
74615;BME280;63121;51.458;-0.110;2023-04-24T08:56:44;100833.59;;;14.76;48.08
74615;BME280;63121;51.458;-0.110;2023-04-24T08:59:13;100837.44;;;14.61;47.88
74615;BME280;63121;51.458;-0.110;2023-04-24T09:01:39;100835.53;;;14.32;47.69
74615;BME280;63121;51.458;-0.110;2023-04-24T09:04:06;100840.31;;;14.83;47.95
74615;BME280;63121;51.458;-0.110;2023-04-24T09:06:32;100832.16;;;14.64;48.42
74615;BME280;63121;51.458;-0.110;2023-04-24T09:09:00;100829.66;;;15.24;46.32
74615;BME280;63121;51.458;-0.110;2023-04-24T09:11:26;100824.13;;;16.48;45.42
74615;BME280;63121;51.458;-0.110;2023-04-24T09:13:53;100823.63;;;16.10;45.01
74615;BME280;63121;51.458;-0.110;2023-04-24T09:16:19;100831.47;;;14.91;48.40
74615;BME280;63121;51.458;-0.110;2023-04-24T09:18:45;100837.13;;;15.05;47.69
74615;BME280;63121;51.458;-0.110;2023-04-24T09:21:10;100836.81;;;14.50;48.57
74615;BME280;63121;51.458;-0.110;2023-04-24T09:23:36;100843.13;;;15.07;49.83
74615;BME280;63121;51.458;-0.110;2023-04-24T09:26:03;100842.88;;;15.18;47.30
74615;BME280;63121;51.458;-0.110;2023-04-24T09:28:34;100845.34;;;15.52;48.05
74615;BME280;63121;51.458;-0.110;2023-04-24T09:33:34;100847.69;;;15.30;46.37
74615;BME280;63121;51.458;-0.110;2023-04-24T09:36:00;100846.88;;;16.16;44.69
74615;BME280;63121;51.458;-0.110;2023-04-24T09:38:36;100841.53;;;17.22;45.42
74615;BME280;63121;51.458;-0.110;2023-04-24T09:41:07;100851.03;;;16.73;43.42
74615;BME280;63121;51.458;-0.110;2023-04-24T09:43:33;100861.00;;;15.80;45.34
74615;BME280;63121;51.458;-0.110;2023-04-24T09:46:04;100870.00;;;15.69;44.76
74615;BME280;63121;51.458;-0.110;2023-04-24T09:48:35;100865.78;;;15.64;45.12
74615;BME280;63121;51.458;-0.110;2023-04-24T09:51:02;100871.72;;;15.07;46.84
74615;BME280;63121;51.458;-0.110;2023-04-24T09:53:30;100872.97;;;14.94;47.37
74615;BME280;63121;51.458;-0.110;2023-04-24T09:55:55;100875.06;;;14.79;48.44
74615;BME280;63121;51.458;-0.110;2023-04-24T09:58:24;100880.16;;;15.48;45.24
74615;BME280;63121;51.458;-0.110;2023-04-24T10:00:53;100877.09;;;14.68;48.24
74615;BME280;63121;51.458;-0.110;2023-04-24T10:03:19;100887.53;;;14.67;47.27
74615;BME280;63121;51.458;-0.110;2023-04-24T10:05:46;100891.16;;;14.61;48.22
74615;BME280;63121;51.458;-0.110;2023-04-24T10:08:11;100888.63;;;15.23;46.78
74615;BME280;63121;51.458;-0.110;2023-04-24T10:10:46;100900.66;;;15.28;46.97
74615;BME280;63121;51.458;-0.110;2023-04-24T10:13:14;100894.56;;;15.29;47.22
74615;BME280;63121;51.458;-0.110;2023-04-24T10:15:41;100895.88;;;15.12;46.67
74615;BME280;63121;51.458;-0.110;2023-04-24T10:18:07;100889.88;;;15.73;45.62
74615;BME280;63121;51.458;-0.110;2023-04-24T10:20:35;100887.28;;;15.41;46.90
74615;BME280;63121;51.458;-0.110;2023-04-24T10:23:02;100895.47;;;15.26;46.99
74615;BME280;63121;51.458;-0.110;2023-04-24T10:25:30;100889.09;;;16.52;43.68
74615;BME280;63121;51.458;-0.110;2023-04-24T10:27:56;100895.16;;;15.98;45.86
74615;BME280;63121;51.458;-0.110;2023-04-24T10:30:25;100892.66;;;15.65;45.53
74615;BME280;63121;51.458;-0.110;2023-04-24T10:32:50;100894.31;;;15.68;46.96
74615;BME280;63121;51.458;-0.110;2023-04-24T10:35:17;100899.97;;;15.83;45.35
74615;BME280;63121;51.458;-0.110;2023-04-24T10:38:14;100900.31;;;15.70;46.76
74615;BME280;63121;51.458;-0.110;2023-04-24T10:40:42;100903.94;;;15.95;46.70
74615;BME280;63121;51.458;-0.110;2023-04-24T10:43:08;100907.00;;;15.17;47.35
74615;BME280;63121;51.458;-0.110;2023-04-24T10:45:36;100901.94;;;15.44;47.27
74615;BME280;63121;51.458;-0.110;2023-04-24T10:48:04;100904.63;;;14.75;48.83
74615;BME280;63121;51.458;-0.110;2023-04-24T10:50:51;100901.66;;;15.22;49.00
74615;BME280;63121;51.458;-0.110;2023-04-24T10:53:18;100902.72;;;15.16;50.41
74615;BME280;63121;51.458;-0.110;2023-04-24T10:55:45;100906.16;;;15.79;48.15
74615;BME280;63121;51.458;-0.110;2023-04-24T10:58:11;100908.38;;;16.20;47.33
74615;BME280;63121;51.458;-0.110;2023-04-24T11:00:39;100904.84;;;15.94;45.14
74615;BME280;63121;51.458;-0.110;2023-04-24T11:03:06;100900.19;;;16.32;44.65
74615;BME280;63121;51.458;-0.110;2023-04-24T11:05:50;100898.72;;;16.50;44.57
74615;BME280;63121;51.458;-0.110;2023-04-24T11:08:28;100902.34;;;16.99;43.87
74615;BME280;63121;51.458;-0.110;2023-04-24T11:13:23;100906.03;;;16.92;42.38
74615;BME280;63121;51.458;-0.110;2023-04-24T11:18:39;100913.16;;;17.61;42.48
74615;BME280;63121;51.458;-0.110;2023-04-24T11:21:16;100911.63;;;17.32;42.97
74615;BME280;63121;51.458;-0.110;2023-04-24T11:23:42;100924.63;;;16.83;42.45
74615;BME280;63121;51.458;-0.110;2023-04-24T11:26:19;100918.91;;;17.22;42.22
74615;BME280;63121;51.458;-0.110;2023-04-24T11:28:47;100915.78;;;17.61;42.03
74615;BME280;63121;51.458;-0.110;2023-04-24T11:31:41;100919.66;;;17.00;42.58
74615;BME280;63121;51.458;-0.110;2023-04-24T11:34:14;100929.22;;;17.50;41.64
74615;BME280;63121;51.458;-0.110;2023-04-24T11:36:44;100922.53;;;17.18;41.24
74615;BME280;63121;51.458;-0.110;2023-04-24T11:39:10;100924.44;;;17.38;40.77
74615;BME280;63121;51.458;-0.110;2023-04-24T11:41:36;100923.53;;;18.10;40.28
74615;BME280;63121;51.458;-0.110;2023-04-24T11:44:03;100920.19;;;18.06;41.31
74615;BME280;63121;51.458;-0.110;2023-04-24T11:46:30;100919.81;;;18.37;39.66
74615;BME280;63121;51.458;-0.110;2023-04-24T11:48:57;100924.78;;;17.76;40.48
74615;BME280;63121;51.458;-0.110;2023-04-24T11:51:23;100922.78;;;18.06;39.26
74615;BME280;63121;51.458;-0.110;2023-04-24T11:53:51;100925.47;;;18.04;40.07
74615;BME280;63121;51.458;-0.110;2023-04-24T11:56:20;100921.66;;;17.19;41.70
74615;BME280;63121;51.458;-0.110;2023-04-24T11:58:47;100918.56;;;17.56;41.21
74615;BME280;63121;51.458;-0.110;2023-04-24T12:01:13;100917.34;;;18.34;40.21
74615;BME280;63121;51.458;-0.110;2023-04-24T12:03:38;100911.34;;;17.86;39.66
74615;BME280;63121;51.458;-0.110;2023-04-24T12:06:08;100924.66;;;18.02;40.52
74615;BME280;63121;51.458;-0.110;2023-04-24T12:08:35;100925.44;;;17.10;40.67
74615;BME280;63121;51.458;-0.110;2023-04-24T12:11:05;100912.00;;;19.00;38.59
74615;BME280;63121;51.458;-0.110;2023-04-24T12:13:32;100910.91;;;19.06;37.33
74615;BME280;63121;51.458;-0.110;2023-04-24T12:15:58;100913.50;;;18.43;38.96
74615;BME280;63121;51.458;-0.110;2023-04-24T12:18:24;100902.50;;;17.91;39.18
74615;BME280;63121;51.458;-0.110;2023-04-24T12:20:49;100905.53;;;17.78;39.52
74615;BME280;63121;51.458;-0.110;2023-04-24T12:23:15;100907.72;;;17.91;38.74
74615;BME280;63121;51.458;-0.110;2023-04-24T12:25:41;100915.47;;;18.16;38.75
74615;BME280;63121;51.458;-0.110;2023-04-24T12:30:34;100902.69;;;18.73;37.74
74615;BME280;63121;51.458;-0.110;2023-04-24T12:33:01;100897.22;;;18.57;37.60
74615;BME280;63121;51.458;-0.110;2023-04-24T12:35:28;100892.53;;;18.65;37.40
74615;BME280;63121;51.458;-0.110;2023-04-24T12:37:54;100896.63;;;18.07;38.61
74615;BME280;63121;51.458;-0.110;2023-04-24T12:40:25;100897.09;;;17.95;38.51
74615;BME280;63121;51.458;-0.110;2023-04-24T12:42:51;100891.13;;;18.78;38.18
74615;BME280;63121;51.458;-0.110;2023-04-24T12:45:18;100893.19;;;18.27;36.94
74615;BME280;63121;51.458;-0.110;2023-04-24T12:47:45;100890.56;;;18.27;38.89